Time;durP1;ratioP1;P1;durP2;ratioP2;P2;SDS_P1;SDS_P2;PMS_P1;PMS_P2;Temp;Humidity;BMP_temperature;BMP_pressure;BME280_temperature;BME280_humidity;BME280_pressure;Samples;Min_cycle;Max_cycle;Signal;HPM_P1;HPM_P2
2022/03/08 00:01:11;;;;;;;10.80;7.22;;;2.30;99.90;;;;;;5073510;28;20166;-48
2022/03/08 00:03:37;;;;;;;12.50;8.60;;;2.30;99.90;;;;;;5073603;28;20245;-48
2022/03/08 00:06:03;;;;;;;15.13;8.75;;;2.30;99.90;;;;;;5073194;28;20637;-48
2022/03/08 00:08:29;;;;;;;11.98;6.72;;;2.30;99.90;;;;;;5073189;28;20166;-48
2022/03/08 00:10:56;;;;;;;10.13;7.60;;;2.30;99.90;;;;;;5072708;28;20202;-48
2022/03/08 00:13:23;;;;;;;15.57;9.80;;;2.30;99.90;;;;;;5072957;28;20166;-48
2022/03/08 00:15:49;;;;;;;12.30;8.07;;;2.30;99.90;;;;;;5073065;28;20184;-48
2022/03/08 00:18:17;;;;;;;17.90;9.70;;;2.30;99.90;;;;;;5054910;28;20658;-48
2022/03/08 00:20:43;;;;;;;13.77;6.28;;;2.20;99.90;;;;;;5072012;28;20178;-48
2022/03/08 00:23:11;;;;;;;16.95;8.50;;;2.30;99.90;;;;;;5073319;28;20284;-48
2022/03/08 00:25:37;;;;;;;10.98;7.18;;;2.20;99.90;;;;;;5072917;28;20166;-49
2022/03/08 00:28:04;;;;;;;18.88;10.63;;;2.30;99.90;;;;;;5054775;28;20180;-48
2022/03/08 00:30:32;;;;;;;18.52;9.43;;;2.30;99.90;;;;;;5072808;28;20565;-48
2022/03/08 00:33:02;;;;;;;10.95;8.13;;;2.30;99.90;;;;;;5072410;28;20279;-49
2022/03/08 00:35:32;;;;;;;7.22;5.43;;;2.30;99.90;;;;;;5072235;28;20191;-48
2022/03/08 00:37:59;;;;;;;6.38;4.70;;;2.30;99.90;;;;;;5054622;28;20166;-48
2022/03/08 00:40:25;;;;;;;13.23;5.20;;;2.20;99.90;;;;;;5072186;28;20166;-49
2022/03/08 00:42:53;;;;;;;6.63;5.05;;;2.20;99.90;;;;;;5072537;28;20170;-48
2022/03/08 00:45:19;;;;;;;7.07;5.13;;;2.20;99.90;;;;;;5072225;28;20650;-49
2022/03/08 00:47:45;;;;;;;7.70;4.35;;;2.20;99.90;;;;;;5072415;28;20177;-48
2022/03/08 00:50:18;;;;;;;8.38;5.20;;;2.20;99.90;;;;;;5072553;28;20193;-49
2022/03/08 00:52:45;;;;;;;6.43;5.00;;;2.20;99.90;;;;;;5072230;28;20582;-48
2022/03/08 00:55:13;;;;;;;7.53;5.40;;;2.20;99.90;;;;;;5070781;28;20192;-48
2022/03/08 00:57:39;;;;;;;7.28;5.55;;;2.30;99.90;;;;;;5072422;28;20166;-49
2022/03/08 01:00:10;;;;;;;6.53;5.05;;;2.20;99.90;;;;;;5072178;28;20243;-48
2022/03/08 01:02:41;;;;;;;7.68;4.78;;;2.20;99.90;;;;;;5072266;28;20577;-48
2022/03/08 01:05:08;;;;;;;6.47;5.18;;;2.20;99.90;;;;;;5072320;28;20162;-48
2022/03/08 01:07:42;;;;;;;7.85;4.78;;;2.20;99.90;;;;;;5071779;28;20161;-48
2022/03/08 01:10:12;;;;;;;5.85;5.25;;;2.10;99.90;;;;;;5072023;28;20193;-49
2022/03/08 01:12:38;;;;;;;7.05;4.72;;;2.10;99.90;;;;;;5072332;28;20204;-48
2022/03/08 01:15:05;;;;;;;7.65;5.13;;;2.10;99.90;;;;;;5071371;28;20244;-48
2022/03/08 01:17:31;;;;;;;8.90;5.30;;;2.10;99.90;;;;;;5071978;28;20169;-48
2022/03/08 01:19:57;;;;;;;10.57;5.15;;;2.10;99.90;;;;;;5071979;28;20166;-49
2022/03/08 01:22:23;;;;;;;8.48;5.20;;;2.10;99.90;;;;;;5072333;28;20174;-49
2022/03/08 01:24:49;;;;;;;8.45;5.72;;;2.10;99.90;;;;;;5072088;28;20528;-49
2022/03/08 01:27:15;;;;;;;14.68;7.40;;;2.10;99.90;;;;;;5071985;28;20170;-48
2022/03/08 01:29:41;;;;;;;8.35;5.85;;;2.10;99.90;;;;;;5054186;28;20525;-49
2022/03/08 01:32:07;;;;;;;9.55;5.47;;;2.10;99.90;;;;;;5072251;28;20285;-50
2022/03/08 01:34:34;;;;;;;8.23;5.10;;;2.00;99.90;;;;;;5071940;28;20158;-50
2022/03/08 01:37:00;;;;;;;6.82;5.10;;;2.00;99.90;;;;;;5072104;28;20261;-50
2022/03/08 01:39:25;;;;;;;9.00;5.13;;;2.00;99.90;;;;;;5071834;28;20173;-49
2022/03/08 01:41:51;;;;;;;6.63;5.00;;;2.00;99.90;;;;;;5071816;28;20174;-49
2022/03/08 01:44:18;;;;;;;8.55;5.03;;;2.00;99.90;;;;;;5071744;28;20246;-50
2022/03/08 01:46:44;;;;;;;6.75;4.75;;;2.00;99.90;;;;;;5075548;28;20310;-49
2022/03/08 01:49:09;;;;;;;5.80;4.32;;;2.10;99.90;;;;;;5076256;28;20271;-50
2022/03/08 01:51:37;;;;;;;6.72;4.25;;;2.00;99.90;;;;;;5075995;28;20205;-49
2022/03/08 01:54:05;;;;;;;9.23;4.65;;;2.00;99.90;;;;;;5076006;28;20166;-49
2022/03/08 01:56:30;;;;;;;9.00;5.47;;;2.00;99.90;;;;;;5075763;28;20162;-49
2022/03/08 01:58:56;;;;;;;8.45;4.70;;;2.00;99.90;;;;;;5075669;28;20245;-49
2022/03/08 02:01:22;;;;;;;6.78;5.10;;;2.10;99.90;;;;;;5075863;28;20176;-49
2022/03/08 02:03:48;;;;;;;8.68;5.30;;;2.00;99.90;;;;;;5075566;28;20530;-49
2022/03/08 02:06:14;;;;;;;7.25;4.70;;;1.90;99.90;;;;;;5075586;28;20170;-49
2022/03/08 02:08:40;;;;;;;5.82;4.50;;;1.90;99.90;;;;;;5076094;28;20174;-49
2022/03/08 02:11:06;;;;;;;5.45;4.90;;;1.90;99.90;;;;;;5075821;28;20193;-49
2022/03/08 02:13:31;;;;;;;6.10;5.07;;;1.90;99.90;;;;;;5075470;28;20181;-49
2022/03/08 02:15:57;;;;;;;5.22;3.90;;;1.90;99.90;;;;;;5075416;28;20178;-49
2022/03/08 02:18:22;;;;;;;5.53;4.78;;;1.80;99.90;;;;;;5075395;28;20252;-49
2022/03/08 02:20:48;;;;;;;5.95;4.30;;;1.90;99.90;;;;;;5075301;28;20185;-49
2022/03/08 02:23:14;;;;;;;5.65;4.43;;;1.80;99.90;;;;;;5075315;28;20178;-49
2022/03/08 02:25:40;;;;;;;5.43;4.65;;;1.80;99.90;;;;;;5075598;28;20169;-49
2022/03/08 02:28:06;;;;;;;7.40;4.72;;;1.90;99.90;;;;;;5075175;28;20166;-49
2022/03/08 02:30:32;;;;;;;6.65;4.95;;;1.90;99.90;;;;;;5075217;28;20205;-49
2022/03/08 02:32:58;;;;;;;5.80;4.40;;;2.00;99.90;;;;;;5075023;28;20174;-49
2022/03/08 02:35:26;;;;;;;6.05;4.68;;;1.90;99.90;;;;;;5075030;28;20184;-49
2022/03/08 02:37:54;;;;;;;7.35;4.72;;;1.80;99.90;;;;;;5075012;28;20212;-49
2022/03/08 02:40:26;;;;;;;9.18;5.05;;;1.90;99.90;;;;;;5074969;28;20632;-49
2022/03/08 02:42:52;;;;;;;6.45;4.80;;;1.80;99.90;;;;;;5074855;28;20530;-49
2022/03/08 02:45:17;;;;;;;7.53;4.53;;;1.80;99.90;;;;;;5074764;28;20177;-49
2022/03/08 02:47:44;;;;;;;7.40;4.35;;;1.80;99.90;;;;;;5074837;28;20250;-49
2022/03/08 02:50:12;;;;;;;9.10;5.38;;;1.80;99.90;;;;;;5075234;28;20173;-49
2022/03/08 02:52:39;;;;;;;8.70;4.80;;;1.80;99.90;;;;;;5075333;28;20185;-49
2022/03/08 02:55:06;;;;;;;6.72;4.97;;;1.70;99.90;;;;;;5074668;28;20201;-49
2022/03/08 02:57:31;;;;;;;6.75;4.22;;;1.80;99.90;;;;;;5073979;28;20177;-49
2022/03/08 02:59:57;;;;;;;7.82;4.80;;;1.70;99.90;;;;;;5074475;28;20174;-49
2022/03/08 03:02:22;;;;;;;6.00;4.40;;;1.80;99.90;;;;;;5074531;28;20173;-49
2022/03/08 03:04:48;;;;;;;7.22;4.82;;;1.70;99.90;;;;;;5074481;28;20166;-49
2022/03/08 03:07:14;;;;;;;7.00;4.60;;;1.70;99.90;;;;;;5074667;28;20174;-49
2022/03/08 03:09:40;;;;;;;7.45;5.32;;;1.70;99.90;;;;;;5074794;28;20189;-49
2022/03/08 03:12:06;;;;;;;7.53;5.07;;;1.70;99.90;;;;;;5074616;28;20729;-49
2022/03/08 03:14:32;;;;;;;8.60;4.95;;;1.70;99.90;;;;;;5074218;28;20197;-48
2022/03/08 03:16:57;;;;;;;5.27;4.37;;;1.70;99.90;;;;;;5074322;28;20201;-49
2022/03/08 03:19:23;;;;;;;7.63;5.15;;;1.70;99.90;;;;;;5074225;28;20177;-49
2022/03/08 03:21:48;;;;;;;7.32;4.70;;;1.60;99.90;;;;;;5074227;28;20208;-49
2022/03/08 03:24:14;;;;;;;5.97;4.47;;;1.60;99.90;;;;;;5074152;28;20173;-49
2022/03/08 03:26:40;;;;;;;7.05;4.43;;;1.60;99.90;;;;;;5074441;28;20216;-49
2022/03/08 03:29:05;;;;;;;5.57;4.47;;;1.60;99.90;;;;;;5074627;28;20169;-49
2022/03/08 03:31:31;;;;;;;6.18;4.13;;;1.60;99.90;;;;;;5073990;28;20572;-49
2022/03/08 03:33:56;;;;;;;8.45;4.45;;;1.70;99.90;;;;;;5074006;28;20173;-50
2022/03/08 03:36:22;;;;;;;6.53;4.53;;;1.60;99.90;;;;;;5074030;28;20212;-50
2022/03/08 03:38:47;;;;;;;6.45;4.40;;;1.60;99.90;;;;;;5073944;28;20186;-49
2022/03/08 03:41:13;;;;;;;5.90;4.47;;;1.60;99.90;;;;;;5074247;28;20173;-49
2022/03/08 03:43:38;;;;;;;7.97;4.88;;;1.60;99.90;;;;;;5074386;28;20575;-49
2022/03/08 03:46:05;;;;;;;7.18;4.55;;;1.60;99.90;;;;;;5073587;28;20579;-49
2022/03/08 03:48:31;;;;;;;6.05;4.38;;;1.60;99.90;;;;;;5073771;28;20536;-49
2022/03/08 03:50:57;;;;;;;4.97;3.83;;;1.60;99.90;;;;;;5073590;28;20685;-49
2022/03/08 03:53:22;;;;;;;7.10;4.23;;;1.50;99.90;;;;;;5073681;28;20174;-49
2022/03/08 03:55:48;;;;;;;4.60;4.10;;;1.50;99.90;;;;;;5073771;28;20170;-49
2022/03/08 03:58:13;;;;;;;5.47;4.30;;;1.60;99.90;;;;;;5073529;28;20178;-50
2022/03/08 04:00:39;;;;;;;5.53;4.20;;;1.50;99.90;;;;;;5073728;28;20537;-49
2022/03/08 04:03:04;;;;;;;5.22;4.20;;;1.50;99.90;;;;;;5073527;28;20170;-49
2022/03/08 04:05:30;;;;;;;5.45;4.05;;;1.50;99.90;;;;;;5055472;28;20170;-49
2022/03/08 04:07:56;;;;;;;5.80;4.18;;;1.50;99.90;;;;;;5073288;28;20166;-49
2022/03/08 04:10:21;;;;;;;8.70;4.35;;;1.60;99.90;;;;;;5073208;28;20196;-49
2022/03/08 04:12:47;;;;;;;5.57;4.07;;;1.60;99.90;;;;;;5073478;28;20565;-49
2022/03/08 04:15:13;;;;;;;11.63;4.67;;;1.60;99.90;;;;;;5073156;28;20166;-49
2022/03/08 04:17:38;;;;;;;6.07;4.28;;;1.50;99.90;;;;;;5073631;28;20182;-49
2022/03/08 04:20:06;;;;;;;6.15;3.97;;;1.50;99.90;;;;;;5073083;28;20158;-49
2022/03/08 04:22:31;;;;;;;7.20;4.80;;;1.50;99.90;;;;;;5073132;28;20158;-49
2022/03/08 04:24:57;;;;;;;9.43;5.18;;;1.50;99.90;;;;;;5073229;28;20177;-49
2022/03/08 04:27:22;;;;;;;8.18;5.88;;;1.50;99.90;;;;;;5072974;28;20571;-49
2022/03/08 04:29:48;;;;;;;9.43;6.35;;;1.50;99.90;;;;;;5072855;28;20165;-48
2022/03/08 04:32:14;;;;;;;9.10;5.43;;;1.50;99.90;;;;;;5072968;28;20526;-49
2022/03/08 04:34:39;;;;;;;6.45;4.60;;;1.50;99.90;;;;;;5073141;28;20178;-49
2022/03/08 04:37:05;;;;;;;5.88;4.07;;;1.50;99.90;;;;;;5072710;28;20166;-49
2022/03/08 04:39:30;;;;;;;6.47;4.37;;;1.50;99.90;;;;;;5072721;28;20170;-49
2022/03/08 04:41:56;;;;;;;6.87;5.17;;;1.50;99.90;;;;;;5072551;28;20173;-49
2022/03/08 04:44:21;;;;;;;5.32;4.18;;;1.50;99.90;;;;;;5072568;28;20172;-48
2022/03/08 04:46:46;;;;;;;8.93;6.03;;;1.40;99.90;;;;;;5072418;28;20214;-48
2022/03/08 04:49:12;;;;;;;6.63;5.10;;;1.40;99.90;;;;;;5072401;28;20622;-50
2022/03/08 04:51:38;;;;;;;8.13;5.57;;;1.40;99.90;;;;;;5072700;28;20208;-49
2022/03/08 04:54:04;;;;;;;7.53;5.17;;;1.50;99.90;;;;;;5072423;28;20226;-48
2022/03/08 04:56:29;;;;;;;10.10;5.30;;;1.50;99.90;;;;;;5072464;28;20539;-49
2022/03/08 04:58:56;;;;;;;5.78;5.18;;;1.50;99.90;;;;;;5072345;28;20166;-49
2022/03/08 05:01:22;;;;;;;7.68;4.97;;;1.40;99.90;;;;;;5072328;28;20168;-49
2022/03/08 05:03:49;;;;;;;6.27;4.30;;;1.40;99.90;;;;;;5072242;28;20497;-50
2022/03/08 05:06:15;;;;;;;6.13;4.60;;;1.40;99.90;;;;;;5071984;28;20498;-49
2022/03/08 05:08:41;;;;;;;9.07;5.00;;;1.40;99.90;;;;;;5072262;28;20166;-49
2022/03/08 05:11:06;;;;;;;9.00;4.70;;;1.30;99.90;;;;;;5072410;28;20216;-49
2022/03/08 05:13:32;;;;;;;5.63;4.25;;;1.40;99.90;;;;;;5072371;28;20166;-49
2022/03/08 05:15:58;;;;;;;6.28;4.80;;;1.40;99.90;;;;;;5072007;28;20163;-48
2022/03/08 05:18:24;;;;;;;6.23;4.40;;;1.30;99.90;;;;;;5072087;28;20647;-49
2022/03/08 05:20:49;;;;;;;7.70;4.83;;;1.40;99.90;;;;;;5071865;28;20268;-49
2022/03/08 05:23:15;;;;;;;8.48;4.65;;;1.40;99.90;;;;;;5072175;28;20180;-48
2022/03/08 05:25:41;;;;;;;8.40;5.07;;;1.50;99.90;;;;;;5071991;28;20565;-49
2022/03/08 05:28:07;;;;;;;7.45;4.95;;;1.40;99.90;;;;;;5072279;28;20173;-48
2022/03/08 05:30:33;;;;;;;8.17;5.70;;;0.00;99.90;;;;;;5071832;28;20200;-49
2022/03/08 05:32:59;;;;;;;7.87;5.30;;;1.40;99.90;;;;;;5071804;28;20653;-48
2022/03/08 05:35:25;;;;;;;7.80;5.28;;;1.40;99.90;;;;;;5071910;28;20162;-48
2022/03/08 05:37:51;;;;;;;6.38;5.15;;;1.30;99.90;;;;;;5071904;28;20256;-48
2022/03/08 05:40:16;;;;;;;9.23;5.20;;;1.40;99.90;;;;;;5071852;28;20647;-48
2022/03/08 05:42:43;;;;;;;7.43;4.97;;;1.40;99.90;;;;;;5071343;28;20205;-49
2022/03/08 05:45:10;;;;;;;7.93;5.20;;;1.40;99.90;;;;;;5071350;28;20220;-49
2022/03/08 05:47:37;;;;;;;8.52;5.20;;;1.40;99.90;;;;;;5072198;28;20182;-48
2022/03/08 05:50:03;;;;;;;10.23;5.00;;;1.30;99.90;;;;;;5071813;28;20169;-48
2022/03/08 05:52:29;;;;;;;7.97;5.43;;;1.40;99.90;;;;;;5071680;28;20182;-48
2022/03/08 05:54:54;;;;;;;6.30;4.78;;;1.30;99.90;;;;;;5071640;28;20170;-48
2022/03/08 05:57:20;;;;;;;6.97;5.13;;;1.40;99.90;;;;;;5071581;28;20178;-49
2022/03/08 05:59:47;;;;;;;7.83;4.97;;;1.30;99.90;;;;;;5071873;28;20231;-48
2022/03/08 06:02:13;;;;;;;9.87;4.93;;;1.30;99.90;;;;;;5071651;28;20169;-48
2022/03/08 06:04:38;;;;;;;8.57;5.13;;;1.30;99.90;;;;;;5072301;28;20169;-49
2022/03/08 06:07:04;;;;;;;6.45;5.22;;;1.30;99.90;;;;;;5071573;28;20181;-48
2022/03/08 06:09:30;;;;;;;6.27;4.30;;;1.30;99.90;;;;;;5071791;28;20180;-48
2022/03/08 06:11:55;;;;;;;6.47;5.13;;;1.30;99.90;;;;;;5071491;28;20201;-49
2022/03/08 06:14:21;;;;;;;8.52;4.95;;;1.40;99.90;;;;;;5071465;28;20166;-49
2022/03/08 06:16:46;;;;;;;7.15;5.03;;;1.30;99.90;;;;;;5071710;28;20174;-49
2022/03/08 06:19:12;;;;;;;6.72;4.82;;;1.30;99.90;;;;;;5071504;28;20244;-48
2022/03/08 06:21:37;;;;;;;7.63;4.40;;;1.30;99.90;;;;;;5071717;28;20207;-48
2022/03/08 06:24:03;;;;;;;7.93;4.95;;;1.30;99.90;;;;;;5071712;28;20176;-50
2022/03/08 06:26:31;;;;;;;8.75;5.05;;;1.40;99.90;;;;;;5071403;28;20173;-50
2022/03/08 06:28:56;;;;;;;8.02;4.90;;;1.30;99.90;;;;;;5071334;28;20535;-49
2022/03/08 06:31:22;;;;;;;5.47;4.20;;;1.40;99.90;;;;;;5071234;28;20209;-48
2022/03/08 06:33:47;;;;;;;7.65;5.00;;;1.40;99.90;;;;;;5074826;28;20169;-49
2022/03/08 06:36:13;;;;;;;8.32;4.68;;;1.40;99.90;;;;;;5075057;28;20253;-49
2022/03/08 06:38:38;;;;;;;6.15;4.75;;;1.40;99.90;;;;;;5075242;28;20174;-49
2022/03/08 06:41:04;;;;;;;7.43;4.80;;;1.40;99.90;;;;;;5074984;28;20527;-48
2022/03/08 06:43:30;;;;;;;11.50;4.50;;;1.40;99.90;;;;;;5074881;28;20181;-49
2022/03/08 06:45:55;;;;;;;6.63;4.68;;;1.50;99.90;;;;;;5074826;28;20755;-49
2022/03/08 06:48:21;;;;;;;8.77;4.93;;;1.50;99.90;;;;;;5074862;28;20177;-49
2022/03/08 06:50:47;;;;;;;10.50;6.15;;;1.60;99.90;;;;;;5056636;28;20197;-50
2022/03/08 06:53:12;;;;;;;7.40;4.53;;;1.60;99.90;;;;;;5074757;28;20177;-49
2022/03/08 06:55:38;;;;;;;10.63;5.32;;;1.70;99.90;;;;;;5074965;28;20177;-49
2022/03/08 06:58:04;;;;;;;15.73;6.35;;;1.70;99.90;;;;;;5074687;28;20173;-50
2022/03/08 07:00:29;;;;;;;7.40;5.10;;;1.70;99.90;;;;;;5074840;28;20162;-49
2022/03/08 07:02:55;;;;;;;6.13;4.95;;;1.80;99.90;;;;;;5074491;28;20701;-50
2022/03/08 07:05:21;;;;;;;8.80;5.55;;;1.80;99.90;;;;;;5074530;28;20213;-50
2022/03/08 07:07:46;;;;;;;6.25;4.32;;;1.80;99.90;;;;;;5074666;28;20174;-49
2022/03/08 07:10:13;;;;;;;5.95;4.90;;;1.90;99.90;;;;;;5074419;28;20641;-49
2022/03/08 07:12:38;;;;;;;6.70;4.85;;;2.00;99.90;;;;;;5074914;28;20185;-49
2022/03/08 07:15:06;;;;;;;9.95;4.45;;;2.00;99.90;;;;;;5074654;28;20176;-49
2022/03/08 07:17:31;;;;;;;6.50;4.72;;;2.10;99.90;;;;;;5074617;28;20193;-49
2022/03/08 07:19:57;;;;;;;8.60;4.80;;;2.20;99.90;;;;;;5074250;28;20597;-50
2022/03/08 07:22:22;;;;;;;11.23;5.15;;;2.20;99.90;;;;;;5074474;28;20177;-48
2022/03/08 07:24:48;;;;;;;10.68;5.28;;;2.40;99.90;;;;;;5074263;28;20287;-49
2022/03/08 07:27:13;;;;;;;13.55;5.25;;;2.50;99.90;;;;;;5074070;28;20169;-49
2022/03/08 07:29:39;;;;;;;12.38;5.22;;;2.60;99.90;;;;;;5074625;28;20173;-49
2022/03/08 07:32:05;;;;;;;8.75;5.07;;;2.60;99.90;;;;;;5074189;28;20217;-49
2022/03/08 07:34:30;;;;;;;15.98;5.57;;;2.80;99.90;;;;;;5074056;28;20616;-49
2022/03/08 07:36:56;;;;;;;8.93;4.95;;;2.90;99.90;;;;;;5074017;28;20644;-49
2022/03/08 07:39:21;;;;;;;10.35;5.20;;;3.00;99.90;;;;;;5073845;28;20185;-49
2022/03/08 07:41:47;;;;;;;5.22;4.72;;;3.00;99.90;;;;;;5073998;28;20540;-49
2022/03/08 07:44:12;;;;;;;12.25;5.00;;;3.10;99.90;;;;;;5073470;28;20631;-49
2022/03/08 07:46:39;;;;;;;7.47;4.15;;;3.20;99.90;;;;;;5073991;28;20222;-49
2022/03/08 07:49:05;;;;;;;7.20;4.70;;;3.30;99.90;;;;;;5074427;28;20172;-49
2022/03/08 07:51:30;;;;;;;12.20;4.70;;;3.40;99.90;;;;;;5073600;28;20205;-49
2022/03/08 07:53:56;;;;;;;13.77;4.63;;;3.40;99.90;;;;;;5073661;28;20166;-50
2022/03/08 07:56:21;;;;;;;7.47;4.63;;;3.50;99.90;;;;;;5073649;28;20504;-50
2022/03/08 07:58:47;;;;;;;7.35;4.55;;;3.50;99.90;;;;;;5073867;28;20646;-49
2022/03/08 08:01:13;;;;;;;7.70;4.65;;;3.60;99.90;;;;;;5073540;28;20656;-49
2022/03/08 08:03:39;;;;;;;7.88;4.15;;;3.70;99.90;;;;;;5072565;28;20162;-46
2022/03/08 08:06:04;;;;;;;10.63;4.82;;;3.90;99.90;;;;;;5072206;28;20163;-47
2022/03/08 08:08:30;;;;;;;5.07;4.45;;;3.90;99.90;;;;;;5072066;28;20257;-48
2022/03/08 08:10:55;;;;;;;7.50;4.72;;;3.90;99.90;;;;;;5072131;28;20197;-46
2022/03/08 08:13:21;;;;;;;7.82;4.70;;;4.00;99.90;;;;;;5071874;28;20168;-48
2022/03/08 08:15:47;;;;;;;6.55;4.63;;;4.10;99.90;;;;;;5071793;28;20170;-45
2022/03/08 08:18:12;;;;;;;5.78;4.72;;;4.20;99.90;;;;;;5071783;28;20170;-51
2022/03/08 08:20:38;;;;;;;14.98;5.15;;;4.20;99.90;;;;;;5072141;28;20166;-47
2022/03/08 08:23:03;;;;;;;6.80;4.75;;;4.20;99.90;;;;;;5071835;28;20162;-51
2022/03/08 08:25:29;;;;;;;14.52;6.65;;;4.40;99.90;;;;;;5071702;28;20170;-48
2022/03/08 08:27:54;;;;;;;11.23;5.90;;;4.50;99.90;;;;;;5071500;28;20158;-48
2022/03/08 08:30:20;;;;;;;6.88;4.60;;;4.50;99.90;;;;;;5071425;28;20163;-51
2022/03/08 08:32:46;;;;;;;29.40;6.80;;;4.60;99.90;;;;;;5071460;28;20166;-48
2022/03/08 08:35:11;;;;;;;26.17;7.68;;;4.70;99.90;;;;;;5070964;28;20218;-50
2022/03/08 08:37:37;;;;;;;11.15;5.97;;;4.90;99.90;;;;;;5071641;28;20174;-50
2022/03/08 08:40:04;;;;;;;16.95;9.27;;;5.00;99.90;;;;;;5071293;28;20336;-52
2022/03/08 08:42:30;;;;;;;15.57;8.43;;;5.00;99.90;;;;;;5071424;28;20263;-48
2022/03/08 08:44:56;;;;;;;6.95;5.43;;;5.10;99.90;;;;;;5071253;28;20253;-49
2022/03/08 08:47:21;;;;;;;7.93;5.03;;;5.10;99.90;;;;;;5071135;28;20698;-49
2022/03/08 08:49:47;;;;;;;6.75;4.85;;;5.20;99.90;;;;;;5071177;28;20177;-49
2022/03/08 08:52:13;;;;;;;9.15;5.03;;;5.30;99.90;;;;;;5070981;28;20255;-50
2022/03/08 08:54:38;;;;;;;5.32;4.20;;;5.30;99.90;;;;;;5070803;28;20194;-48
2022/03/08 08:57:04;;;;;;;8.00;5.13;;;5.40;99.90;;;;;;5070879;28;20166;-48
2022/03/08 08:59:30;;;;;;;6.75;4.78;;;5.50;99.90;;;;;;5071045;28;20253;-50
2022/03/08 09:01:56;;;;;;;5.78;4.57;;;5.50;99.90;;;;;;5070960;28;20231;-47
2022/03/08 09:04:21;;;;;;;8.90;4.65;;;5.70;99.90;;;;;;5070871;28;20173;-49
2022/03/08 09:06:47;;;;;;;7.63;5.10;;;5.80;99.90;;;;;;5071304;28;20224;-47
2022/03/08 09:09:13;;;;;;;10.50;5.90;;;5.70;99.90;;;;;;5070926;28;20166;-48
2022/03/08 09:11:38;;;;;;;8.95;4.88;;;5.90;99.90;;;;;;5071087;28;20209;-49
2022/03/08 09:14:04;;;;;;;8.30;4.32;;;6.00;99.90;;;;;;5070973;28;20166;-49
2022/03/08 09:16:30;;;;;;;6.25;4.70;;;6.10;99.90;;;;;;5070816;28;20166;-48
2022/03/08 09:18:56;;;;;;;9.02;4.35;;;6.10;99.90;;;;;;5070869;28;20200;-49
2022/03/08 09:21:22;;;;;;;8.68;4.75;;;6.30;99.90;;;;;;5070801;28;20537;-48
2022/03/08 09:23:47;;;;;;;8.43;4.63;;;6.40;99.90;;;;;;5070701;28;20166;-50
2022/03/08 09:26:13;;;;;;;10.30;5.18;;;6.50;99.90;;;;;;5070617;28;20177;-49
2022/03/08 09:28:38;;;;;;;7.40;4.60;;;6.50;99.90;;;;;;5071222;28;20247;-48
2022/03/08 09:31:04;;;;;;;9.48;5.25;;;6.50;99.90;;;;;;5071852;28;20608;-48
2022/03/08 09:33:30;;;;;;;10.55;4.63;;;6.60;99.90;;;;;;5072159;28;20166;-48
2022/03/08 09:35:55;;;;;;;6.30;4.28;;;6.50;98.50;;;;;;5071900;28;20170;-48
2022/03/08 09:38:21;;;;;;;9.65;4.20;;;6.50;98.30;;;;;;5072190;28;20158;-48
2022/03/08 09:40:47;;;;;;;4.80;4.30;;;6.40;97.70;;;;;;5071847;28;20173;-48
2022/03/08 09:43:15;;;;;;;8.73;4.93;;;6.50;97.60;;;;;;5072080;28;20177;-47
2022/03/08 09:45:40;;;;;;;8.25;4.70;;;6.60;97.30;;;;;;5071623;28;20198;-48
2022/03/08 09:48:06;;;;;;;13.52;4.50;;;6.80;96.60;;;;;;5072156;28;20257;-48
2022/03/08 09:50:31;;;;;;;6.55;4.13;;;6.80;96.30;;;;;;5071716;28;20201;-48
2022/03/08 09:52:58;;;;;;;9.32;4.20;;;6.90;96.40;;;;;;5071738;28;20197;-48
2022/03/08 09:55:25;;;;;;;6.57;4.22;;;7.00;95.60;;;;;;5071735;28;20194;-48
2022/03/08 09:57:52;;;;;;;12.40;4.38;;;7.10;95.30;;;;;;5071703;28;20181;-48
2022/03/08 10:00:18;;;;;;;22.20;4.43;;;7.20;93.20;;;;;;5071668;28;20162;-48
2022/03/08 10:02:55;;;;;;;15.32;4.25;;;7.10;91.80;;;;;;5071682;28;20586;-48
2022/03/08 10:05:29;;;;;;;26.17;5.10;;;7.20;91.00;;;;;;5071736;28;20170;-48
2022/03/08 10:08:11;;;;;;;18.48;5.03;;;7.30;90.50;;;;;;5075504;28;20257;-48
2022/03/08 10:10:55;;;;;;;9.70;4.13;;;7.40;90.80;;;;;;5076011;28;20205;-48
2022/03/08 10:13:24;;;;;;;23.27;4.95;;;7.40;90.10;;;;;;5075873;28;20248;-48
2022/03/08 10:16:24;;;;;;;12.93;3.70;;;7.30;89.30;;;;;;5075377;28;20631;-48
2022/03/08 10:18:52;;;;;;;9.40;4.10;;;7.50;89.70;;;;;;5075599;28;20206;-49
2022/03/08 10:21:43;;;;;;;7.15;3.60;;;7.50;87.70;;;;;;5075214;28;20631;-48
2022/03/08 10:24:13;;;;;;;14.20;4.60;;;7.70;88.20;;;;;;5075722;28;20513;-48
2022/03/08 10:26:44;;;;;;;22.17;4.93;;;7.80;88.30;;;;;;5075535;28;20521;-48
2022/03/08 10:29:09;;;;;;;14.02;4.38;;;7.70;87.20;;;;;;5075464;28;20173;-48
2022/03/08 10:31:35;;;;;;;11.38;4.40;;;7.70;86.80;;;;;;5075441;28;20206;-48
2022/03/08 10:34:06;;;;;;;10.32;4.55;;;7.70;87.90;;;;;;5075031;28;20167;-48
2022/03/08 10:36:35;;;;;;;12.88;4.78;;;7.80;88.70;;;;;;5075030;28;20650;-48
2022/03/08 10:39:09;;;;;;;18.80;4.20;;;7.90;86.70;;;;;;5075333;28;20177;-48
2022/03/08 10:41:48;;;;;;;11.80;4.97;;;7.90;85.40;;;;;;5075555;28;20170;-48
2022/03/08 10:44:15;;;;;;;19.10;4.38;;;8.10;87.80;;;;;;5074904;28;20166;-48
2022/03/08 10:46:41;;;;;;;15.90;9.27;;;8.00;85.00;;;;;;5074546;28;20237;-48
2022/03/08 10:49:12;;;;;;;11.48;7.35;;;8.00;85.20;;;;;;5075113;28;20631;-48
2022/03/08 10:51:37;;;;;;;11.32;4.63;;;8.00;87.20;;;;;;5074986;28;20201;-48
2022/03/08 10:54:14;;;;;;;7.75;4.10;;;8.10;87.00;;;;;;5074993;28;20737;-48
2022/03/08 10:56:43;;;;;;;18.17;6.95;;;8.20;87.00;;;;;;5074888;28;20193;-48
2022/03/08 10:59:11;;;;;;;23.48;8.70;;;8.20;86.30;;;;;;5074990;28;20166;-48
2022/03/08 11:01:38;;;;;;;8.82;5.22;;;8.40;85.80;;;;;;5075045;28;20319;-48
2022/03/08 11:04:03;;;;;;;12.18;4.53;;;8.30;85.40;;;;;;5074591;28;20211;-48
2022/03/08 11:06:30;;;;;;;18.23;6.47;;;8.40;84.20;;;;;;5074591;28;20166;-48
2022/03/08 11:08:56;;;;;;;12.65;7.03;;;8.40;85.80;;;;;;5074453;28;20257;-48
2022/03/08 11:11:21;;;;;;;37.67;14.80;;;8.50;84.20;;;;;;5074285;28;20201;-48
2022/03/08 11:13:50;;;;;;;12.55;6.40;;;8.60;85.10;;;;;;5074638;28;20162;-48
2022/03/08 11:16:16;;;;;;;6.90;4.78;;;8.70;85.90;;;;;;5074570;28;20170;-48
2022/03/08 11:18:48;;;;;;;18.45;9.50;;;8.60;82.70;;;;;;5073557;28;20170;-48
2022/03/08 11:21:15;;;;;;;16.75;4.90;;;8.70;82.60;;;;;;5074221;28;20647;-48
2022/03/08 11:23:42;;;;;;;13.98;6.45;;;8.70;82.90;;;;;;5074310;28;20264;-48
2022/03/08 11:26:12;;;;;;;8.77;5.95;;;8.80;83.20;;;;;;5074572;28;20162;-48
2022/03/08 11:28:40;;;;;;;8.55;6.28;;;6.80;80.30;;;;;;5074497;28;20162;-48
2022/03/08 11:31:06;;;;;;;10.65;7.50;;;8.70;81.00;;;;;;5074278;28;20280;-49
2022/03/08 11:33:47;;;;;;;6.15;4.43;;;8.80;81.50;;;;;;5074258;28;20655;-48
2022/03/08 11:36:42;;;;;;;6.70;4.32;;;8.80;81.10;;;;;;5074012;28;20170;-47
2022/03/08 11:39:20;;;;;;;24.98;7.82;;;8.90;81.00;;;;;;5036100;28;20185;-48
2022/03/08 11:41:48;;;;;;;22.80;11.00;;;9.10;81.80;;;;;;5073776;28;20166;-48
2022/03/08 11:44:28;;;;;;;10.57;4.43;;;9.00;81.10;;;;;;5074150;28;20200;-48
2022/03/08 11:47:14;;;;;;;10.88;4.15;;;9.10;81.70;;;;;;5073658;28;20245;-48
2022/03/08 11:49:43;;;;;;;14.95;9.60;;;9.10;80.90;;;;;;5073926;28;20173;-48
2022/03/08 11:52:13;;;;;;;5.28;4.47;;;9.20;80.90;;;;;;5073956;28;20208;-48
2022/03/08 11:54:39;;;;;;;22.63;5.95;;;9.30;80.70;;;;;;5074123;28;20166;-48
2022/03/08 11:57:05;;;;;;;10.38;5.90;;;9.30;80.30;;;;;;5073987;28;20550;-48
2022/03/08 11:59:30;;;;;;;7.63;4.55;;;9.30;81.90;;;;;;5073665;28;20693;-48
2022/03/08 12:01:56;;;;;;;11.85;6.32;;;9.40;80.70;;;;;;5073559;28;20170;-48
2022/03/08 12:04:22;;;;;;;7.93;5.20;;;9.20;79.60;;;;;;5073412;28;20166;-48
2022/03/08 12:07:00;;;;;;;21.52;8.57;;;9.40;79.40;;;;;;5073405;28;20169;-48
2022/03/08 12:09:26;;;;;;;7.68;5.28;;;9.30;79.30;;;;;;5055395;28;20227;-48
2022/03/08 12:12:03;;;;;;;5.15;4.15;;;9.30;78.90;;;;;;5073208;28;20206;-48
2022/03/08 12:14:31;;;;;;;19.27;7.57;;;9.60;80.20;;;;;;5073090;28;20173;-48
2022/03/08 12:17:12;;;;;;;10.90;4.20;;;9.60;79.20;;;;;;5073115;28;20166;-48
2022/03/08 12:19:46;;;;;;;6.13;3.80;;;9.80;79.30;;;;;;5073531;28;20194;-48
2022/03/08 12:22:23;;;;;;;6.13;4.43;;;9.70;77.80;;;;;;5073010;28;20222;-48
2022/03/08 12:24:51;;;;;;;20.85;6.63;;;9.70;79.10;;;;;;5073011;28;20253;-48
2022/03/08 12:27:19;;;;;;;21.15;5.53;;;9.80;78.90;;;;;;5073202;28;20185;-48
2022/03/08 12:29:59;;;;;;;17.73;5.90;;;9.80;76.50;;;;;;5071854;28;20170;-48
2022/03/08 12:32:36;;;;;;;5.05;4.00;;;9.90;76.70;;;;;;5072925;28;20220;-48
2022/03/08 12:35:19;;;;;;;20.48;9.40;;;9.90;77.20;;;;;;5072809;28;20295;-48
2022/03/08 12:37:49;;;;;;;26.77;9.20;;;10.10;76.10;;;;;;5072738;28;20170;-49
2022/03/08 12:40:17;;;;;;;14.95;6.03;;;10.20;73.20;;;;;;5072936;28;20169;-47
2022/03/08 12:42:44;;;;;;;38.38;15.85;;;10.40;75.60;;;;;;5072569;28;20215;-48
2022/03/08 12:45:24;;;;;;;12.65;4.90;;;10.10;74.50;;;;;;5072592;28;20197;-48
2022/03/08 12:47:57;;;;;;;7.43;4.68;;;10.40;75.00;;;;;;5072574;28;20170;-48
2022/03/08 12:50:30;;;;;;;28.85;11.85;;;10.30;71.80;;;;;;5072469;28;20212;-48
2022/03/08 12:53:08;;;;;;;13.00;6.25;;;10.50;73.40;;;;;;5072380;28;20181;-48